Stations météo

réclame
Mon MeteoGroup
Arties, Espagne (8107): Température de l'air & dewpoint: 11.10.2017 03:00:00 - 17.10.2017 03:00:00 (CEST)Arties, Espagne (8107): Vitesse du vent & gusts: 11.10.2017 03:00:00 - 17.10.2017 03:00:00 (CEST)Arties, Espagne (8107): Direction du vent: 11.10.2017 03:00:00 - 17.10.2017 03:00:00 (CEST)Arties, Espagne (8107): Quantités de précipitations: 11.10.2017 03:00:00 - 17.10.2017 03:00:00 (CEST)
Date & Time tt [°C] td [°C] ff [km/h] ff [knt] fx [km/h] fx [knt] dd rr [mm]
17.10.2017 03:00:00 13,5 8,1 5 3 13 7 E 0,0
17.10.2017 02:00:00 10,2 6,8 0 0 6 3 SE -
17.10.2017 01:00:00 11,2 6,7 0 0 15 8 N 0,0
17.10.2017 00:00:00 13,0 7,8 4 2 13 7 E 0,0
16.10.2017 23:00:00 12,5 7,8 3 1 10 5 ENE 0,0
16.10.2017 22:00:00 12,9 7,6 4 2 12 6 NE 0,0
16.10.2017 21:00:00 14,8 7,8 7 4 15 8 ENE 0,0
16.10.2017 20:00:00 15,9 8,1 9 5 14 8 NE -
16.10.2017 19:00:00 17,4 9,0 0 0 10 5 NE 0,0
16.10.2017 18:00:00 20,7 8,4 1 1 11 6 SSW 0,0
16.10.2017 17:00:00 23,2 8,8 2 1 9 5 SSW 0,0
16.10.2017 16:00:00 26,2 9,9 4 2 11 6 SW 0,0
16.10.2017 15:00:00 26,4 10,9 4 2 13 7 WSW 0,0
16.10.2017 14:00:00 25,6 10,6 3 2 15 8 SW -
16.10.2017 13:00:00 23,1 11,8 1 0 7 4 ESE 0,0
16.10.2017 12:00:00 19,6 10,9 0 0 3 2 ESE 0,0
16.10.2017 11:00:00 15,2 8,3 0 0 16 9 SSE 0,0
16.10.2017 10:00:00 14,9 6,4 8 5 18 10 ESE 0,0
16.10.2017 09:00:00 13,3 5,9 5 3 21 11 ESE 0,0
16.10.2017 08:00:00 13,6 6,2 7 4 22 12 E -
16.10.2017 07:00:00 13,4 6,2 9 5 22 12 E 0,0
16.10.2017 06:00:00 13,4 7,0 8 4 19 10 E 0,0
16.10.2017 05:00:00 13,9 7,7 6 3 19 10 ESE 0,0
16.10.2017 04:00:00 13,6 8,0 5 3 16 9 E 0,0
16.10.2017 03:00:00 14,2 8,8 5 3 16 8 ESE 0,0
16.10.2017 02:00:00 14,8 9,2 7 4 19 10 E -
16.10.2017 01:00:00 15,1 9,4 5 3 15 8 E 0,0
16.10.2017 00:00:00 15,4 9,3 6 4 15 8 E 0,0
15.10.2017 23:00:00 15,7 9,3 6 3 16 9 E 0,0
15.10.2017 22:00:00 15,1 9,2 3 2 16 8 E 0,0
15.10.2017 21:00:00 15,0 8,7 7 4 16 9 NE 0,0
15.10.2017 20:00:00 15,9 9,6 6 4 11 6 ENE -
15.10.2017 19:00:00 18,3 9,9 0 0 12 6 SE 0,0
15.10.2017 18:00:00 21,5 9,4 2 1 8 4 SSW 0,0
15.10.2017 17:00:00 25,3 9,9 3 1 12 7 WSW 0,0
15.10.2017 16:00:00 26,8 10,5 4 2 17 9 WSW 0,0
15.10.2017 15:00:00 26,6 10,3 5 3 18 10 SW 0,0
15.10.2017 14:00:00 26,8 10,5 3 2 12 6 SW -
15.10.2017 13:00:00 24,8 12,4 2 1 8 4 WSW 0,0
15.10.2017 12:00:00 20,0 11,4 0 0 4 2 ESE 0,0
15.10.2017 11:00:00 16,2 9,2 0 0 14 8 NE 0,0
15.10.2017 10:00:00 14,9 7,0 7 4 21 11 E 0,0
15.10.2017 09:00:00 14,1 5,9 9 5 21 11 E 0,0
15.10.2017 08:00:00 14,0 6,1 9 5 20 11 E -
15.10.2017 07:00:00 14,1 5,9 8 5 19 10 E 0,0
15.10.2017 06:00:00 13,9 6,1 9 5 24 13 E 0,0
15.10.2017 05:00:00 14,2 6,2 9 5 18 10 E 0,0
15.10.2017 04:00:00 13,9 6,5 8 4 19 11 E 0,0
15.10.2017 03:00:00 14,2 6,8 6 4 19 10 E 0,0
15.10.2017 02:00:00 14,7 7,3 8 4 18 10 E -
15.10.2017 01:00:00 14,8 7,6 6 3 20 11 E 0,0
15.10.2017 00:00:00 15,0 7,3 6 3 16 9 E 0,0
14.10.2017 23:00:00 13,3 6,8 5 3 14 7 E 0,0
14.10.2017 22:00:00 13,9 6,7 1 1 15 8 NE 0,0
14.10.2017 21:00:00 16,0 7,3 9 5 19 11 ENE 0,0
14.10.2017 20:00:00 17,0 7,8 7 4 18 10 ENE -
14.10.2017 19:00:00 17,8 7,3 2 1 13 7 E 0,0
14.10.2017 18:00:00 21,0 7,3 1 0 10 6 S 0,0
14.10.2017 17:00:00 24,6 8,9 3 1 13 7 SW 0,0
14.10.2017 16:00:00 26,3 9,6 5 3 14 8 SW 0,0
14.10.2017 15:00:00 27,7 11,2 3 2 14 8 SW 0,0
14.10.2017 14:00:00 26,2 10,8 4 2 10 6 WSW -
14.10.2017 13:00:00 23,6 11,7 3 2 7 4 SSW 0,0
14.10.2017 12:00:00 19,5 11,6 0 0 0 0 N 0,0
14.10.2017 11:00:00 15,3 8,8 0 0 5 3 ESE 0,0
14.10.2017 10:00:00 11,4 5,9 1 0 12 7 E 0,0
14.10.2017 09:00:00 12,0 5,6 4 2 16 9 E 0,0
14.10.2017 08:00:00 12,4 5,3 6 3 18 10 E -
14.10.2017 07:00:00 11,4 5,3 5 3 16 8 ENE 0,0
14.10.2017 06:00:00 10,3 4,8 2 1 13 7 E 0,0
14.10.2017 05:00:00 10,7 5,3 2 1 16 9 ENE 0,0
14.10.2017 04:00:00 10,0 5,1 2 1 10 6 E 0,0
14.10.2017 03:00:00 10,3 5,1 4 2 10 6 ENE 0,0
14.10.2017 02:00:00 10,8 5,3 4 2 10 6 ENE -
14.10.2017 01:00:00 10,7 5,0 4 2 13 7 ENE 0,0
14.10.2017 00:00:00 10,3 4,6 1 0 7 4 ENE 0,0
13.10.2017 23:00:00 11,1 4,8 4 2 11 6 NE 0,0
13.10.2017 22:00:00 11,9 5,5 3 2 9 5 ENE 0,0
13.10.2017 21:00:00 12,5 5,5 2 1 8 4 ENE 0,0
13.10.2017 20:00:00 14,7 5,9 1 0 11 6 NE -
13.10.2017 19:00:00 17,0 6,8 2 1 9 5 NE 0,0
13.10.2017 18:00:00 22,0 6,2 3 2 13 7 SW 0,0
13.10.2017 17:00:00 23,8 7,4 4 2 22 12 SW 0,0
13.10.2017 16:00:00 26,3 8,3 5 3 17 9 SW 0,0
13.10.2017 15:00:00 27,4 9,7 4 2 14 8 SW 0,0
13.10.2017 14:00:00 26,1 9,0 6 3 16 9 SSW -
13.10.2017 13:00:00 23,1 10,5 1 1 10 6 WSW 0,0
13.10.2017 12:00:00 18,2 8,8 0 0 1 1 ESE 0,0
13.10.2017 11:00:00 13,5 6,1 0 0 10 5 NE 0,0
13.10.2017 10:00:00 10,0 3,8 4 2 13 7 E 0,0
13.10.2017 09:00:00 8,7 2,3 4 2 16 9 ENE 0,0
13.10.2017 08:00:00 9,0 2,1 5 3 15 8 E -
13.10.2017 07:00:00 9,1 2,9 6 3 12 7 ENE 0,0
13.10.2017 06:00:00 8,4 2,9 5 3 14 7 ENE 0,0
13.10.2017 05:00:00 8,1 3,2 3 1 12 6 ENE 0,0
13.10.2017 04:00:00 8,1 3,4 3 1 12 7 ENE 0,0
13.10.2017 03:00:00 8,7 4,3 4 2 12 7 E 0,0
13.10.2017 02:00:00 8,5 4,6 1 1 9 5 ENE -
13.10.2017 01:00:00 8,7 4,6 0 0 11 6 SSE 0,0
13.10.2017 00:00:00 10,2 5,0 4 2 16 9 ENE 0,0
12.10.2017 23:00:00 - - - - - - - -
12.10.2017 22:00:00 - - - - - - - -
12.10.2017 21:00:00 - - - - - - - -
12.10.2017 20:00:00 - - - - - - - -
12.10.2017 19:00:00 18,8 6,2 5 3 18 10 SW 0,0
12.10.2017 18:00:00 20,3 6,2 6 3 16 9 SSW 0,0
12.10.2017 17:00:00 23,8 7,4 4 2 16 9 SW 0,0
12.10.2017 16:00:00 25,0 8,0 4 2 12 7 W 0,0
12.10.2017 15:00:00 25,3 8,3 4 2 14 8 W 0,0
12.10.2017 14:00:00 25,0 8,5 4 2 13 7 WSW -
12.10.2017 13:00:00 21,3 9,8 1 1 6 3 SW 0,0
12.10.2017 12:00:00 17,9 9,6 0 0 0 0 N 0,0
12.10.2017 11:00:00 14,0 7,7 0 0 4 2 N 0,0
12.10.2017 10:00:00 10,1 5,1 1 0 13 7 E 0,0
12.10.2017 09:00:00 8,8 3,8 2 1 13 7 E 0,0
12.10.2017 08:00:00 8,0 3,2 2 1 16 8 ENE -
12.10.2017 07:00:00 7,5 3,6 3 2 13 7 ENE 0,0
12.10.2017 06:00:00 8,1 3,6 2 1 14 8 ENE 0,0
12.10.2017 05:00:00 7,9 3,8 3 1 9 5 ENE 0,0
12.10.2017 04:00:00 7,7 3,6 0 0 13 7 N 0,0
12.10.2017 03:00:00 8,3 3,9 4 2 12 7 ENE 0,0
12.10.2017 02:00:00 8,7 4,1 3 2 10 6 E -
12.10.2017 01:00:00 9,6 4,5 5 3 12 6 ENE 0,0
12.10.2017 00:00:00 9,8 4,1 5 3 13 7 ENE 0,0
11.10.2017 23:00:00 9,6 4,1 1 1 13 7 ENE 0,0
11.10.2017 22:00:00 11,4 4,6 5 3 14 8 ENE 0,0
11.10.2017 21:00:00 12,3 5,0 4 2 11 6 ENE 0,0
11.10.2017 20:00:00 13,9 5,0 4 2 13 7 NE -
11.10.2017 19:00:00 18,5 3,9 4 2 17 9 SW 0,0
11.10.2017 18:00:00 21,2 4,6 6 3 16 9 SSW 0,0
11.10.2017 17:00:00 23,5 5,8 4 2 11 6 SSW 0,0
11.10.2017 16:00:00 25,7 6,8 4 2 11 6 SW 0,0
11.10.2017 15:00:00 26,7 8,1 3 2 10 5 SW 0,0
11.10.2017 14:00:00 25,5 8,5 2 1 8 5 SW -
11.10.2017 13:00:00 20,2 9,4 1 1 3 2 SE 0,0
11.10.2017 12:00:00 16,6 8,0 0 0 1 1 N 0,0
11.10.2017 11:00:00 12,6 6,2 0 0 4 2 SE 0,0
11.10.2017 10:00:00 8,1 3,6 0 0 14 8 E 0,0
11.10.2017 09:00:00 8,6 2,7 3 2 12 7 ENE 0,0
11.10.2017 08:00:00 7,3 2,5 1 1 16 8 E -
11.10.2017 07:00:00 8,4 3,0 3 2 18 10 ENE 0,0
11.10.2017 06:00:00 9,4 3,8 6 3 16 9 ENE 0,0
11.10.2017 05:00:00 9,0 4,3 5 3 14 8 ENE 0,0
11.10.2017 04:00:00 10,2 4,3 5 3 15 8 E 0,0
11.10.2017 03:00:00 9,7 4,6 4 2 16 8 ENE 0,0

tt = Température de l'air
td = dewpoint
ff = Vitesse du vent
fx = gusts
dd = Direction du vent
rr = Quantités de précipitations

stations d'obs. à proximité